Time;durP1;ratioP1;P1;durP2;ratioP2;P2;SDS_P1;SDS_P2;PMS_P1;PMS_P2;Temp;Humidity;BMP_temperature;BMP_pressure;BME280_temperature;BME280_humidity;BME280_pressure;Samples;Min_cycle;Max_cycle;Signal;HPM_P1;HPM_P2
2022/04/21 00:01:39;;;;;;;8.38;5.28;;;;;;;;;;5077882;28;20162;-68
2022/04/21 00:04:05;;;;;;;11.32;5.63;;;;;;;;;;5080750;28;20540;-66
2022/04/21 00:06:31;;;;;;;10.23;6.00;;;;;;;;;;5075568;28;20089;-65
2022/04/21 00:08:57;;;;;;;7.40;5.53;;;;;;;;;;5093446;28;20090;-68
2022/04/21 00:11:23;;;;;;;8.02;5.65;;;;;;;;;;5077190;28;20039;-68
2022/04/21 00:13:49;;;;;;;10.98;5.53;;;;;;;;;;5080581;28;20043;-68
2022/04/21 00:16:16;;;;;;;10.52;6.45;;;;;;;;;;5076520;28;20433;-68
2022/04/21 00:18:42;;;;;;;10.45;6.43;;;;;;;;;;5067809;28;20051;-66
2022/04/21 00:21:09;;;;;;;9.73;6.25;;;;;;;;;;5087542;28;20051;-66
2022/04/21 00:23:35;;;;;;;11.80;7.22;;;;;;;;;;5081581;28;20036;-66
2022/04/21 00:26:02;;;;;;;9.27;6.40;;;;;;;;;;5069837;28;20587;-66
2022/04/21 00:28:29;;;;;;;10.55;6.18;;;;;;;;;;5067804;28;20040;-66
2022/04/21 00:30:56;;;;;;;11.48;7.15;;;;;;;;;;5085521;28;20044;-66
2022/04/21 00:33:22;;;;;;;10.98;6.85;;;;;;;;;;5081930;28;20083;-66
2022/04/21 00:35:48;;;;;;;9.73;7.80;;;;;;;;;;5089597;28;20560;-66
2022/04/21 00:38:14;;;;;;;13.55;8.00;;;;;;;;;;5086485;28;20043;-66
2022/04/21 00:40:40;;;;;;;12.45;7.32;;;;;;;;;;5063410;28;20075;-67
2022/04/21 00:43:07;;;;;;;9.85;7.25;;;;;;;;;;5078952;28;20097;-66
2022/04/21 00:45:33;;;;;;;11.45;7.88;;;;;;;;;;5089154;28;20039;-68
2022/04/21 00:48:01;;;;;;;13.95;9.93;;;;;;;;;;5058266;28;20703;-68
2022/04/21 00:50:45;;;;;;;13.57;8.68;;;;;;;;;;5082298;28;20119;-66
2022/04/21 00:53:11;;;;;;;10.27;7.47;;;;;;;;;;5080442;28;20048;-65
2022/04/21 00:55:39;;;;;;;14.50;8.38;;;;;;;;;;5084758;28;20048;-66
2022/04/21 00:58:06;;;;;;;11.38;8.45;;;;;;;;;;5081661;28;20044;-66
2022/04/21 01:00:32;;;;;;;10.45;8.57;;;;;;;;;;5064780;28;20528;-68
2022/04/21 01:02:58;;;;;;;12.57;8.95;;;;;;;;;;5070305;28;20134;-68
2022/04/21 01:05:31;;;;;;;12.60;8.63;;;;;;;;;;5069034;28;20044;-66
2022/04/21 01:08:07;;;;;;;12.30;8.32;;;;;;;;;;5079517;28;20070;-66
2022/04/21 01:10:37;;;;;;;11.40;8.85;;;;;;;;;;5068366;28;20048;-66
2022/04/21 01:13:06;;;;;;;17.02;9.50;;;;;;;;;;5073578;28;20401;-66
2022/04/21 01:15:32;;;;;;;15.68;9.35;;;;;;;;;;5073787;28;20486;-66
2022/04/21 01:17:58;;;;;;;15.45;9.50;;;;;;;;;;5083914;28;20048;-69
2022/04/21 01:20:25;;;;;;;14.52;9.60;;;;;;;;;;5085014;28;20078;-66
2022/04/21 01:22:52;;;;;;;13.25;9.50;;;;;;;;;;5079259;28;20093;-67
2022/04/21 01:25:19;;;;;;;14.68;10.30;;;;;;;;;;5066649;28;20225;-66
2022/04/21 01:27:47;;;;;;;14.43;9.68;;;;;;;;;;5083146;28;20048;-66
2022/04/21 01:30:13;;;;;;;12.60;8.90;;;;;;;;;;5086311;28;20069;-66
2022/04/21 01:32:43;;;;;;;19.60;10.15;;;;;;;;;;5078637;28;20047;-66
2022/04/21 01:35:09;;;;;;;13.32;9.45;;;;;;;;;;5088737;28;20279;-66
2022/04/21 01:43:06;;;;;;;15.38;10.48;;;;;;;;;;5058516;28;20063;-67
2022/04/21 01:45:33;;;;;;;12.00;9.85;;;;;;;;;;5086221;28;20436;-66
2022/04/21 01:47:59;;;;;;;17.60;10.27;;;;;;;;;;5085583;28;20076;-67
2022/04/21 01:50:26;;;;;;;17.05;10.95;;;;;;;;;;5065812;28;20101;-66
2022/04/21 01:52:52;;;;;;;15.43;9.75;;;;;;;;;;5080409;28;20734;-68
2022/04/21 01:55:19;;;;;;;17.90;10.35;;;;;;;;;;5087182;28;20052;-66
2022/04/21 01:57:45;;;;;;;17.55;10.60;;;;;;;;;;5082566;28;20044;-67
2022/04/21 02:00:11;;;;;;;15.50;10.63;;;;;;;;;;5074349;28;20044;-67
2022/04/21 02:02:37;;;;;;;17.27;10.50;;;;;;;;;;5083485;28;20464;-66
2022/04/21 02:05:04;;;;;;;14.38;9.57;;;;;;;;;;5084706;28;20040;-67
2022/04/21 02:07:30;;;;;;;15.77;11.07;;;;;;;;;;5064369;28;20478;-66
2022/04/21 02:09:56;;;;;;;18.00;10.32;;;;;;;;;;5079808;28;20253;-66
2022/04/21 02:12:23;;;;;;;15.55;10.77;;;;;;;;;;5082419;28;20040;-66
2022/04/21 02:14:49;;;;;;;15.73;11.23;;;;;;;;;;5082314;28;20081;-66
2022/04/21 02:17:16;;;;;;;19.73;12.43;;;;;;;;;;5082459;28;20036;-66
2022/04/21 02:19:42;;;;;;;18.00;11.15;;;;;;;;;;5086389;28;20047;-66
2022/04/21 02:22:08;;;;;;;15.90;10.43;;;;;;;;;;5088640;28;20086;-66
2022/04/21 02:24:34;;;;;;;16.15;11.77;;;;;;;;;;5083122;28;20036;-66
2022/04/21 02:27:00;;;;;;;15.00;10.35;;;;;;;;;;5084268;28;20055;-66
2022/04/21 02:29:26;;;;;;;18.42;11.38;;;;;;;;;;5076475;28;20090;-66
2022/04/21 02:31:52;;;;;;;16.30;10.38;;;;;;;;;;5085462;28;20036;-66
2022/04/21 02:34:19;;;;;;;16.63;12.07;;;;;;;;;;5084545;28;20043;-66
2022/04/21 02:36:45;;;;;;;18.85;11.07;;;;;;;;;;5088647;28;20131;-66
2022/04/21 02:39:11;;;;;;;17.55;12.30;;;;;;;;;;5076214;28;20156;-66
2022/04/21 02:41:37;;;;;;;14.32;9.10;;;;;;;;;;5087999;28;20088;-66
2022/04/21 02:44:03;;;;;;;13.75;10.35;;;;;;;;;;5082705;28;20501;-67
2022/04/21 02:46:30;;;;;;;19.45;10.55;;;;;;;;;;5076419;28;20102;-66
2022/04/21 02:48:57;;;;;;;17.30;11.45;;;;;;;;;;5074760;28;20033;-66
2022/04/21 02:51:23;;;;;;;16.00;12.15;;;;;;;;;;5087914;28;20044;-66
2022/04/21 02:59:19;;;;;;;18.75;11.18;;;;;;;;;;5089738;28;20083;-66
2022/04/21 03:01:45;;;;;;;15.18;10.10;;;;;;;;;;5091480;28;20051;-66
2022/04/21 03:04:11;;;;;;;14.73;9.77;;;;;;;;;;5085891;28;20093;-66
2022/04/21 03:06:37;;;;;;;14.98;10.05;;;;;;;;;;5088491;28;20036;-66
2022/04/21 03:09:03;;;;;;;16.70;10.45;;;;;;;;;;5083444;28;20324;-66
2022/04/21 03:11:29;;;;;;;17.17;11.48;;;;;;;;;;5091514;28;20519;-67
2022/04/21 03:13:56;;;;;;;14.77;11.32;;;;;;;;;;5088502;28;20170;-66
2022/04/21 03:16:22;;;;;;;15.82;11.73;;;;;;;;;;5086377;28;20433;-66
2022/04/21 03:18:48;;;;;;;14.43;11.02;;;;;;;;;;5082380;28;20047;-66
2022/04/21 03:26:44;;;;;;;12.07;8.90;;;;;;;;;;5090662;28;20550;-66
2022/04/21 03:29:10;;;;;;;15.13;10.77;;;;;;;;;;5088687;28;20071;-68
2022/04/21 03:31:37;;;;;;;15.45;10.52;;;;;;;;;;5075903;28;20085;-66
2022/04/21 03:34:05;;;;;;;15.63;10.07;;;;;;;;;;5084126;28;20040;-66
2022/04/21 03:36:33;;;;;;;15.45;9.48;;;;;;;;;;5079516;28;20175;-66
2022/04/21 03:38:59;;;;;;;16.75;10.73;;;;;;;;;;5085543;28;20078;-66
2022/04/21 03:41:25;;;;;;;17.00;11.38;;;;;;;;;;5082792;28;20066;-67
2022/04/21 03:43:51;;;;;;;16.23;9.38;;;;;;;;;;5084353;28;20597;-66
2022/04/21 03:46:17;;;;;;;16.23;9.85;;;;;;;;;;5081015;28;20040;-66
2022/04/21 03:48:44;;;;;;;13.25;9.13;;;;;;;;;;5085492;28;20086;-66
2022/04/21 03:51:10;;;;;;;15.50;9.52;;;;;;;;;;5077416;28;20493;-66
2022/04/21 03:53:36;;;;;;;14.35;9.32;;;;;;;;;;5087406;28;20532;-66
2022/04/21 03:56:02;;;;;;;14.55;10.35;;;;;;;;;;5085203;28;20044;-66
2022/04/21 03:58:28;;;;;;;16.08;9.65;;;;;;;;;;5084700;28;20405;-66
2022/04/21 04:00:54;;;;;;;15.30;10.80;;;;;;;;;;5082951;28;20500;-66
2022/04/21 04:03:21;;;;;;;16.65;10.35;;;;;;;;;;5084776;28;20452;-67
2022/04/21 04:05:47;;;;;;;14.38;9.23;;;;;;;;;;5080666;28;20513;-66
2022/04/21 04:10:59;;;;;;;15.73;9.95;;;;;;;;;;5087287;28;20040;-66
2022/04/21 04:13:25;;;;;;;14.55;9.48;;;;;;;;;;5081951;28;20047;-66
2022/04/21 04:15:54;;;;;;;13.73;9.98;;;;;;;;;;5060863;28;20741;-66
2022/04/21 04:18:22;;;;;;;13.00;9.02;;;;;;;;;;5082514;28;20054;-66
2022/04/21 04:20:49;;;;;;;13.15;9.05;;;;;;;;;;5079559;28;20219;-66
2022/04/21 04:23:15;;;;;;;15.57;10.52;;;;;;;;;;5081464;28;20039;-66
2022/04/21 04:25:41;;;;;;;14.07;8.93;;;;;;;;;;5087669;28;20050;-66
2022/04/21 04:28:07;;;;;;;12.75;9.63;;;;;;;;;;5088006;28;20043;-66
2022/04/21 04:30:34;;;;;;;14.73;9.07;;;;;;;;;;5087520;28;20044;-66
2022/04/21 04:33:00;;;;;;;11.55;9.02;;;;;;;;;;5086358;28;20055;-66
2022/04/21 04:35:26;;;;;;;15.10;9.20;;;;;;;;;;5088608;28;20048;-66
2022/04/21 04:37:53;;;;;;;13.35;8.90;;;;;;;;;;5070250;28;20032;-66
2022/04/21 04:40:19;;;;;;;14.13;9.38;;;;;;;;;;5087667;28;20043;-68
2022/04/21 04:42:45;;;;;;;12.30;8.60;;;;;;;;;;5085657;28;20089;-66
2022/04/21 04:47:56;;;;;;;16.38;9.55;;;;;;;;;;5087642;28;20217;-66
2022/04/21 04:50:23;;;;;;;12.38;8.90;;;;;;;;;;5087041;28;20172;-66
2022/04/21 04:52:49;;;;;;;12.25;9.27;;;;;;;;;;5087839;28;20204;-66
2022/04/21 04:55:15;;;;;;;10.68;8.70;;;;;;;;;;5086716;28;20039;-66
2022/04/21 04:57:42;;;;;;;14.75;8.73;;;;;;;;;;5089315;28;20083;-66
2022/04/21 05:00:08;;;;;;;12.15;8.52;;;;;;;;;;5082181;28;20057;-66
2022/04/21 05:02:35;;;;;;;13.35;7.63;;;;;;;;;;5086272;28;20035;-66
2022/04/21 05:05:01;;;;;;;14.50;8.13;;;;;;;;;;5069276;28;20050;-68
2022/04/21 05:07:27;;;;;;;15.68;8.82;;;;;;;;;;5078472;28;20051;-66
2022/04/21 05:09:53;;;;;;;12.68;8.90;;;;;;;;;;5085799;28;20444;-64
2022/04/21 05:12:21;;;;;;;11.73;8.55;;;;;;;;;;5089064;28;20087;-65
2022/04/21 05:14:48;;;;;;;11.48;8.23;;;;;;;;;;5083498;28;20040;-64
2022/04/21 05:17:15;;;;;;;9.95;7.68;;;;;;;;;;5087643;28;20105;-65
2022/04/21 05:19:41;;;;;;;13.52;8.95;;;;;;;;;;5085615;28;20519;-67
2022/04/21 05:22:11;;;;;;;10.98;8.10;;;;;;;;;;5085716;28;20038;-67
2022/04/21 05:24:39;;;;;;;13.07;8.55;;;;;;;;;;5063124;28;20051;-66
2022/04/21 05:27:05;;;;;;;15.73;9.20;;;;;;;;;;5084502;28;20336;-67
2022/04/21 05:32:20;;;;;;;13.10;8.65;;;;;;;;;;5073399;28;20047;-66
2022/04/21 05:34:46;;;;;;;14.57;8.52;;;;;;;;;;5081403;28;20047;-67
2022/04/21 05:37:13;;;;;;;11.20;7.53;;;;;;;;;;5046820;28;20143;-66
2022/04/21 05:39:39;;;;;;;10.88;8.23;;;;;;;;;;5084568;28;20119;-65
2022/04/21 05:42:06;;;;;;;11.25;7.70;;;;;;;;;;5078259;28;20086;-64
2022/04/21 05:44:33;;;;;;;12.30;8.18;;;;;;;;;;5083432;28;20044;-64
2022/04/21 05:46:59;;;;;;;11.60;7.30;;;;;;;;;;5082211;28;20115;-65
2022/04/21 05:49:25;;;;;;;12.38;8.35;;;;;;;;;;5086135;28;20040;-65
2022/04/21 05:51:53;;;;;;;12.52;8.38;;;;;;;;;;5084525;28;20032;-65
2022/04/21 05:54:19;;;;;;;23.85;8.63;;;;;;;;;;5056101;28;20441;-64
2022/04/21 05:56:45;;;;;;;10.95;7.90;;;;;;;;;;5033773;28;20067;-65
2022/04/21 05:59:11;;;;;;;11.90;7.75;;;;;;;;;;5034214;28;20494;-65
2022/04/21 06:01:38;;;;;;;12.65;7.78;;;;;;;;;;5035859;28;20041;-65
2022/04/21 06:04:04;;;;;;;11.02;8.20;;;;;;;;;;5037602;28;20090;-64
2022/04/21 06:06:30;;;;;;;12.43;7.78;;;;;;;;;;5033822;28;20549;-65
2022/04/21 06:08:57;;;;;;;12.15;7.88;;;;;;;;;;5047974;28;20048;-64
2022/04/21 06:11:24;;;;;;;7.55;6.13;;;;;;;;;;5043888;28;20068;-65
2022/04/21 06:13:51;;;;;;;10.00;6.90;;;;;;;;;;5039211;28;20608;-64
2022/04/21 06:16:17;;;;;;;12.07;7.47;;;;;;;;;;5033802;28;20037;-65
2022/04/21 06:18:44;;;;;;;10.23;7.18;;;;;;;;;;5043103;28;20166;-64
2022/04/21 06:21:10;;;;;;;11.02;7.25;;;;;;;;;;5043387;28;20045;-64
2022/04/21 06:23:36;;;;;;;11.95;7.40;;;;;;;;;;5042677;28;20076;-65
2022/04/21 06:26:03;;;;;;;10.02;7.70;;;;;;;;;;5043420;28;20090;-64
2022/04/21 06:28:30;;;;;;;12.05;7.70;;;;;;;;;;5052603;28;20036;-65
2022/04/21 06:30:56;;;;;;;10.98;7.90;;;;;;;;;;5061203;28;20040;-64
2022/04/21 06:33:22;;;;;;;10.38;7.28;;;;;;;;;;5048416;28;20029;-64
2022/04/21 06:35:48;;;;;;;14.18;8.43;;;;;;;;;;5055768;28;20036;-64
2022/04/21 06:38:15;;;;;;;13.13;8.10;;;;;;;;;;5057948;28;20044;-65
2022/04/21 06:40:41;;;;;;;15.57;8.23;;;;;;;;;;5061904;28;20044;-64
2022/04/21 06:48:37;;;;;;;9.95;6.90;;;;;;;;;;5064228;28;20076;-64
2022/04/21 06:51:05;;;;;;;13.48;7.55;;;;;;;;;;5053743;28;20041;-64
2022/04/21 06:53:34;;;;;;;13.40;7.15;;;;;;;;;;5062909;28;20052;-64
2022/04/21 06:56:01;;;;;;;11.30;7.53;;;;;;;;;;5087029;28;20305;-64
2022/04/21 06:58:27;;;;;;;13.75;8.10;;;;;;;;;;5058116;28;20068;-65
2022/04/21 07:00:53;;;;;;;13.30;8.52;;;;;;;;;;5072214;28;20032;-65
2022/04/21 07:03:20;;;;;;;10.70;7.28;;;;;;;;;;5079168;28;20054;-65
2022/04/21 07:05:46;;;;;;;10.80;7.82;;;;;;;;;;5085864;28;20067;-65
2022/04/21 07:08:13;;;;;;;9.85;7.72;;;;;;;;;;5087931;28;20038;-65
2022/04/21 07:10:39;;;;;;;11.45;7.72;;;;;;;;;;5090469;28;20047;-65
2022/04/21 07:13:10;;;;;;;12.50;7.28;;;;;;;;;;5085053;28;20037;-65
2022/04/21 07:15:36;;;;;;;11.45;7.63;;;;;;;;;;5082924;28;20124;-65
2022/04/21 07:18:02;;;;;;;13.55;8.20;;;;;;;;;;5088122;28;20101;-64
2022/04/21 07:20:28;;;;;;;9.23;6.47;;;;;;;;;;5089223;28;20040;-65
2022/04/21 07:22:54;;;;;;;10.45;7.53;;;;;;;;;;5090625;28;20405;-65
2022/04/21 07:25:20;;;;;;;10.50;7.47;;;;;;;;;;5089255;28;20038;-64
2022/04/21 07:27:47;;;;;;;12.35;6.53;;;;;;;;;;5089512;28;20047;-64
2022/04/21 07:30:13;;;;;;;12.32;6.60;;;;;;;;;;5089883;28;20401;-65
2022/04/21 07:32:39;;;;;;;10.80;5.50;;;;;;;;;;5081501;28;20455;-65
2022/04/21 07:35:06;;;;;;;10.05;5.93;;;;;;;;;;5089052;28;20036;-65
2022/04/21 07:37:33;;;;;;;9.82;6.30;;;;;;;;;;5069539;28;20295;-65
2022/04/21 07:39:59;;;;;;;7.85;4.85;;;;;;;;;;5082978;28;20040;-65
2022/04/21 07:42:25;;;;;;;7.03;4.75;;;;;;;;;;5083843;28;20067;-64
2022/04/21 07:44:51;;;;;;;14.13;7.05;;;;;;;;;;5077000;28;20075;-64
2022/04/21 07:47:17;;;;;;;69.07;27.90;;;;;;;;;;5091782;28;20477;-64
2022/04/21 07:49:47;;;;;;;245.60;93.88;;;;;;;;;;5069722;28;20442;-64
2022/04/21 07:54:58;;;;;;;8.05;4.57;;;;;;;;;;5069598;28;20058;-69
2022/04/21 07:57:24;;;;;;;6.65;4.63;;;;;;;;;;5086793;28;20462;-70
2022/04/21 07:59:50;;;;;;;8.65;4.07;;;;;;;;;;5070409;28;20044;-70
2022/04/21 08:02:16;;;;;;;10.20;4.63;;;;;;;;;;5084767;28;20542;-70
2022/04/21 08:04:44;;;;;;;8.55;4.90;;;;;;;;;;5080562;28;20044;-70
2022/04/21 08:07:11;;;;;;;7.53;4.45;;;;;;;;;;5068641;28;20540;-69
2022/04/21 08:09:37;;;;;;;7.05;4.25;;;;;;;;;;5088226;28;20040;-69
2022/04/21 08:12:03;;;;;;;7.60;4.82;;;;;;;;;;5089357;28;20101;-69
2022/04/21 08:14:29;;;;;;;11.38;4.40;;;;;;;;;;5066692;28;20124;-68
2022/04/21 08:16:55;;;;;;;10.02;4.25;;;;;;;;;;5088558;28;20074;-68
2022/04/21 08:19:22;;;;;;;5.80;4.13;;;;;;;;;;5055576;28;20047;-67
2022/04/21 08:21:48;;;;;;;7.35;4.07;;;;;;;;;;5047572;28;20047;-68
2022/04/21 08:32:45;;;;;;;5.18;3.53;;;;;;;;;;5087336;28;20040;-68
2022/04/21 08:35:15;;;;;;;4.65;3.03;;;;;;;;;;5061952;28;20040;-68
2022/04/21 08:37:42;;;;;;;7.18;3.90;;;;;;;;;;5066806;28;20044;-68
2022/04/21 08:40:10;;;;;;;4.05;3.00;;;;;;;;;;5080782;28;20036;-68
2022/04/21 08:42:40;;;;;;;6.43;3.22;;;;;;;;;;5086479;28;20130;-68
2022/04/21 08:45:07;;;;;;;5.75;3.50;;;;;;;;;;5085038;28;20371;-68
2022/04/21 08:47:34;;;;;;;4.88;3.45;;;;;;;;;;5046512;28;20032;-68
2022/04/21 08:50:03;;;;;;;5.82;3.35;;;;;;;;;;5088476;28;20508;-68
2022/04/21 08:52:31;;;;;;;5.43;2.97;;;;;;;;;;5077418;28;20111;-67
2022/04/21 08:54:57;;;;;;;5.88;2.67;;;;;;;;;;5088002;28;20043;-68
2022/04/21 08:57:23;;;;;;;5.28;3.00;;;;;;;;;;5071155;28;20048;-68
2022/04/21 08:59:49;;;;;;;3.75;2.45;;;;;;;;;;5077157;28;20119;-68
2022/04/21 09:02:16;;;;;;;4.20;2.45;;;;;;;;;;5076893;28;20044;-68
2022/04/21 09:04:42;;;;;;;3.88;2.20;;;;;;;;;;5083431;28;20093;-68
2022/04/21 09:07:34;;;;;;;3.83;2.40;;;;;;;;;;5087166;28;20067;-68
2022/04/21 09:10:06;;;;;;;3.97;2.10;;;;;;;;;;5054665;28;20106;-68
2022/04/21 09:12:32;;;;;;;4.40;2.53;;;;;;;;;;5066374;28;20042;-68
2022/04/21 09:15:03;;;;;;;4.88;2.30;;;;;;;;;;5085945;28;20066;-68
2022/04/21 09:17:29;;;;;;;3.90;2.45;;;;;;;;;;5086182;28;20249;-68
2022/04/21 09:19:59;;;;;;;6.60;2.75;;;;;;;;;;5080249;28;20106;-68
2022/04/21 09:22:25;;;;;;;4.60;2.80;;;;;;;;;;5081707;28;20062;-68
2022/04/21 09:24:53;;;;;;;4.93;2.50;;;;;;;;;;5084485;28;20044;-68
2022/04/21 09:27:19;;;;;;;6.63;2.53;;;;;;;;;;5057027;28;20147;-68
2022/04/21 09:29:46;;;;;;;3.78;2.72;;;;;;;;;;5067750;28;20048;-68
2022/04/21 09:32:15;;;;;;;4.53;2.63;;;;;;;;;;5062597;28;20036;-68
2022/04/21 09:34:48;;;;;;;5.03;2.80;;;;;;;;;;5063350;28;20062;-68
2022/04/21 09:37:18;;;;;;;5.15;2.83;;;;;;;;;;5077741;28;20557;-68
2022/04/21 09:39:49;;;;;;;3.22;2.67;;;;;;;;;;5081979;28;20450;-68
2022/04/21 09:42:23;;;;;;;5.35;2.75;;;;;;;;;;5084481;28;20295;-68
2022/04/21 09:47:34;;;;;;;7.70;3.10;;;;;;;;;;5075789;28;20063;-68
2022/04/21 09:50:12;;;;;;;4.30;2.83;;;;;;;;;;5065104;28;20051;-66
2022/04/21 09:52:39;;;;;;;5.45;2.55;;;;;;;;;;5078244;28;20048;-66
2022/04/21 09:55:24;;;;;;;5.68;2.60;;;;;;;;;;5081217;28;20131;-68
2022/04/21 09:58:04;;;;;;;3.88;3.22;;;;;;;;;;5076597;28;20054;-69
2022/04/21 10:00:30;;;;;;;5.47;3.53;;;;;;;;;;5087307;28;20119;-69
2022/04/21 10:02:57;;;;;;;7.68;3.63;;;;;;;;;;5081607;28;20044;-68
2022/04/21 10:05:24;;;;;;;4.50;2.53;;;;;;;;;;5080965;28;20037;-68
2022/04/21 10:07:50;;;;;;;7.45;3.53;;;;;;;;;;5068266;28;20521;-68
2022/04/21 10:10:17;;;;;;;3.33;2.70;;;;;;;;;;5086557;28;20134;-68
2022/04/21 10:12:43;;;;;;;5.90;2.90;;;;;;;;;;5079353;28;20040;-68
2022/04/21 10:15:10;;;;;;;3.65;2.50;;;;;;;;;;5057812;28;20048;-68
2022/04/21 10:17:36;;;;;;;4.47;2.72;;;;;;;;;;5080201;28;20082;-68
2022/04/21 10:20:03;;;;;;;7.28;3.38;;;;;;;;;;5083901;28;20036;-68
2022/04/21 10:22:32;;;;;;;5.80;3.55;;;;;;;;;;5078277;28;20059;-67
2022/04/21 10:24:58;;;;;;;4.20;3.13;;;;;;;;;;5077667;28;20497;-68
2022/04/21 10:27:37;;;;;;;4.50;3.00;;;;;;;;;;5078074;28;20136;-68
2022/04/21 10:30:14;;;;;;;4.75;3.15;;;;;;;;;;5062883;28;20094;-68
2022/04/21 10:32:47;;;;;;;4.40;3.47;;;;;;;;;;5085950;28;20047;-68
2022/04/21 10:35:28;;;;;;;5.40;2.80;;;;;;;;;;5078893;28;20040;-68
2022/04/21 10:38:30;;;;;;;4.45;2.95;;;;;;;;;;5076446;28;20147;-68
2022/04/21 10:40:56;;;;;;;5.97;2.97;;;;;;;;;;5000848;28;20129;-68
2022/04/21 10:43:22;;;;;;;4.22;2.50;;;;;;;;;;5063163;28;20441;-68
2022/04/21 10:46:12;;;;;;;5.15;3.08;;;;;;;;;;5059875;28;20148;-68
2022/04/21 10:48:42;;;;;;;5.35;2.60;;;;;;;;;;5075021;28;20036;-68
2022/04/21 10:51:08;;;;;;;4.43;2.60;;;;;;;;;;5062179;28;20473;-68
2022/04/21 10:59:29;;;;;;;3.55;2.67;;;;;;;;;;5061706;28;20536;-69
2022/04/21 11:01:55;;;;;;;4.40;2.80;;;;;;;;;;5074305;28;20033;-69
2022/04/21 11:04:22;;;;;;;5.65;2.90;;;;;;;;;;5077913;28;20046;-68
2022/04/21 11:06:54;;;;;;;5.72;3.47;;;;;;;;;;5077922;28;20040;-68
2022/04/21 11:09:39;;;;;;;4.78;2.97;;;;;;;;;;5059113;28;20556;-69
2022/04/21 11:12:06;;;;;;;5.90;3.50;;;;;;;;;;5084066;28;20467;-68
2022/04/21 11:14:33;;;;;;;5.28;3.45;;;;;;;;;;5082275;28;20118;-68
2022/04/21 11:17:00;;;;;;;5.15;2.97;;;;;;;;;;5063004;28;20059;-68
2022/04/21 11:19:30;;;;;;;5.50;3.03;;;;;;;;;;5081451;28;20544;-68
2022/04/21 11:21:56;;;;;;;4.28;2.95;;;;;;;;;;5087185;28;20123;-69
2022/04/21 11:24:22;;;;;;;4.93;3.40;;;;;;;;;;5065351;28;20202;-69
2022/04/21 11:26:55;;;;;;;5.55;3.55;;;;;;;;;;5088711;28;20048;-69
2022/04/21 11:29:21;;;;;;;5.93;3.78;;;;;;;;;;5059574;28;20044;-68
2022/04/21 11:31:48;;;;;;;6.10;3.53;;;;;;;;;;5075447;28;20058;-68
2022/04/21 11:34:22;;;;;;;5.30;3.75;;;;;;;;;;5086159;28;20032;-68
2022/04/21 11:36:48;;;;;;;4.80;2.90;;;;;;;;;;5082849;28;20910;-69
2022/04/21 11:39:15;;;;;;;6.55;3.63;;;;;;;;;;5079234;28;20062;-69
2022/04/21 11:41:42;;;;;;;6.88;3.53;;;;;;;;;;5088954;28;20047;-68
2022/04/21 11:44:08;;;;;;;4.60;3.47;;;;;;;;;;5086127;28;20451;-69
2022/04/21 11:46:37;;;;;;;5.55;3.45;;;;;;;;;;5081464;28;20154;-69
2022/04/21 11:49:04;;;;;;;5.95;3.30;;;;;;;;;;5077542;28;20041;-69
2022/04/21 11:51:30;;;;;;;6.47;3.85;;;;;;;;;;5090092;28;20101;-69
2022/04/21 11:54:03;;;;;;;5.97;3.65;;;;;;;;;;5086169;28;20083;-69
2022/04/21 11:56:29;;;;;;;;;;;;;;;;;;5090934;28;20624;-70
2022/04/21 11:58:55;;;;;;;6.15;3.08;;;;;;;;;;5085912;28;19916;-68
2022/04/21 12:06:56;;;;;;;4.32;2.50;;;;;;;;;;5087496;28;20036;-68
2022/04/21 12:09:24;;;;;;;4.43;2.72;;;;;;;;;;5084599;28;20070;-69
2022/04/21 12:11:51;;;;;;;5.57;3.00;;;;;;;;;;5090895;28;20040;-68
2022/04/21 12:14:18;;;;;;;5.13;2.90;;;;;;;;;;5080236;28;20029;-69
2022/04/21 12:16:45;;;;;;;5.05;2.65;;;;;;;;;;5068889;28;20093;-70
2022/04/21 12:19:28;;;;;;;4.63;2.90;;;;;;;;;;5084635;28;20542;-69
2022/04/21 12:21:59;;;;;;;5.22;3.45;;;;;;;;;;5090287;28;20042;-69
2022/04/21 12:24:30;;;;;;;5.20;2.90;;;;;;;;;;5085619;28;20040;-68
2022/04/21 12:26:56;;;;;;;3.75;2.63;;;;;;;;;;5069789;28;20504;-69
2022/04/21 12:29:23;;;;;;;5.72;2.83;;;;;;;;;;5088428;28;20476;-69
2022/04/21 12:31:49;;;;;;;4.60;3.10;;;;;;;;;;5088166;28;20767;-69
2022/04/21 12:34:22;;;;;;;4.13;2.90;;;;;;;;;;5078934;28;20124;-68
2022/04/21 12:36:52;;;;;;;4.82;3.10;;;;;;;;;;5060996;28;20044;-69
2022/04/21 12:39:19;;;;;;;5.03;3.65;;;;;;;;;;5086761;28;20054;-68
2022/04/21 12:41:46;;;;;;;5.78;3.22;;;;;;;;;;5088486;28;20400;-69
2022/04/21 12:44:12;;;;;;;4.72;3.25;;;;;;;;;;5081476;28;20452;-69
2022/04/21 12:46:40;;;;;;;5.47;3.47;;;;;;;;;;5083935;28;20048;-69
2022/04/21 12:49:07;;;;;;;9.43;3.00;;;;;;;;;;5084521;28;20044;-69
2022/04/21 12:51:33;;;;;;;6.20;3.78;;;;;;;;;;5064457;28;20520;-69
2022/04/21 12:54:00;;;;;;;8.00;3.55;;;;;;;;;;5087138;28;20135;-69
2022/04/21 12:56:36;;;;;;;6.47;3.28;;;;;;;;;;5085096;28;20066;-69
2022/04/21 12:59:03;;;;;;;5.70;3.33;;;;;;;;;;5081245;28;20040;-68
2022/04/21 13:01:29;;;;;;;5.72;3.13;;;;;;;;;;5084179;28;20115;-68
2022/04/21 13:03:59;;;;;;;6.78;3.35;;;;;;;;;;5081537;28;20036;-69
2022/04/21 13:06:30;;;;;;;5.25;3.25;;;;;;;;;;5073565;28;20052;-68
2022/04/21 13:08:56;;;;;;;11.57;4.15;;;;;;;;;;5063500;28;20066;-68
2022/04/21 13:11:22;;;;;;;23.02;8.50;;;;;;;;;;5085235;28;20449;-66
2022/04/21 13:13:50;;;;;;;6.43;3.30;;;;;;;;;;5066555;28;20036;-67
2022/04/21 13:16:17;;;;;;;4.63;3.05;;;;;;;;;;5052628;28;20087;-67
2022/04/21 13:18:43;;;;;;;6.80;3.22;;;;;;;;;;5077840;28;20043;-67
2022/04/21 13:23:55;;;;;;;5.72;2.92;;;;;;;;;;5064449;28;20052;-64
2022/04/21 13:26:24;;;;;;;5.10;3.45;;;;;;;;;;5078418;28;20127;-63
2022/04/21 13:28:50;;;;;;;7.60;3.22;;;;;;;;;;5079897;28;20115;-63
2022/04/21 13:34:02;;;;;;;6.00;3.10;;;;;;;;;;5085028;28;20055;-63
2022/04/21 13:36:28;;;;;;;6.07;2.90;;;;;;;;;;5075278;28;20463;-62
2022/04/21 13:38:55;;;;;;;4.43;3.38;;;;;;;;;;5071950;28;20093;-65
2022/04/21 13:41:22;;;;;;;28.48;7.30;;;;;;;;;;5069674;28;20032;-63
2022/04/21 13:43:48;;;;;;;13.00;3.55;;;;;;;;;;5074407;28;20064;-62
2022/04/21 13:46:15;;;;;;;6.80;3.20;;;;;;;;;;5069642;28;20042;-61
2022/04/21 13:48:42;;;;;;;8.77;4.10;;;;;;;;;;5090309;28;20035;-60
2022/04/21 13:51:08;;;;;;;15.50;4.18;;;;;;;;;;5068293;28;20309;-64
2022/04/21 13:53:35;;;;;;;12.45;3.40;;;;;;;;;;5070628;28;20044;-64
2022/04/21 13:56:07;;;;;;;3.58;2.75;;;;;;;;;;5083618;28;20060;-68
2022/04/21 13:58:34;;;;;;;6.10;3.45;;;;;;;;;;5083374;28;20044;-62
2022/04/21 14:01:00;;;;;;;6.05;3.45;;;;;;;;;;5073235;28;20496;-63
2022/04/21 14:03:26;;;;;;;5.38;2.83;;;;;;;;;;5077614;28;20052;-66
2022/04/21 14:05:52;;;;;;;8.82;3.05;;;;;;;;;;5066556;28;20044;-66
2022/04/21 14:08:19;;;;;;;14.55;3.65;;;;;;;;;;5061991;28;20368;-63
2022/04/21 14:10:45;;;;;;;13.68;4.10;;;;;;;;;;5057397;28;20197;-66
2022/04/21 14:13:11;;;;;;;10.82;4.40;;;;;;;;;;5066463;28;20043;-66
2022/04/21 14:15:38;;;;;;;6.13;3.83;;;;;;;;;;5075551;28;20119;-65
2022/04/21 14:18:05;;;;;;;5.88;2.78;;;;;;;;;;5079078;28;20036;-68
2022/04/21 14:20:31;;;;;;;13.65;3.63;;;;;;;;;;5077014;28;20043;-70
2022/04/21 14:22:57;;;;;;;7.80;3.00;;;;;;;;;;5043660;28;20101;-66
2022/04/21 14:25:23;;;;;;;6.85;3.72;;;;;;;;;;5080868;28;20127;-65
2022/04/21 14:27:50;;;;;;;5.75;3.22;;;;;;;;;;5061506;28;20397;-66
2022/04/21 14:30:16;;;;;;;5.15;3.13;;;;;;;;;;5059082;28;20052;-65
2022/04/21 14:32:42;;;;;;;7.38;2.97;;;;;;;;;;5079981;28;20040;-66
2022/04/21 14:35:09;;;;;;;5.38;2.70;;;;;;;;;;5080746;28;20033;-66
2022/04/21 14:45:49;;;;;;;16.02;4.38;;;;;;;;;;5082377;28;20051;-65
2022/04/21 14:48:15;;;;;;;7.28;3.30;;;;;;;;;;5078996;28;20046;-65
2022/04/21 14:50:41;;;;;;;4.53;3.35;;;;;;;;;;5080056;28;20040;-65
2022/04/21 14:53:07;;;;;;;6.20;3.55;;;;;;;;;;5088704;28;20036;-65
2022/04/21 14:55:33;;;;;;;4.57;3.30;;;;;;;;;;5068245;28;20135;-65
2022/04/21 14:58:00;;;;;;;5.22;3.88;;;;;;;;;;5086761;28;20510;-66
2022/04/21 15:00:26;;;;;;;4.70;3.38;;;;;;;;;;5083855;28;20044;-67
2022/04/21 15:02:54;;;;;;;9.07;3.88;;;;;;;;;;5085221;28;20044;-66
2022/04/21 15:05:20;;;;;;;6.82;3.60;;;;;;;;;;5085481;28;20072;-67
2022/04/21 15:07:46;;;;;;;8.13;3.72;;;;;;;;;;5069512;28;20065;-66
2022/04/21 15:10:13;;;;;;;7.32;4.00;;;;;;;;;;5054629;28;20044;-66
2022/04/21 15:12:39;;;;;;;4.88;3.63;;;;;;;;;;5089986;28;20432;-66
2022/04/21 15:15:07;;;;;;;4.85;3.72;;;;;;;;;;5084142;28;20032;-66
2022/04/21 15:17:33;;;;;;;5.72;3.83;;;;;;;;;;5089401;28;20680;-67
2022/04/21 15:20:02;;;;;;;8.20;4.55;;;;;;;;;;5089895;28;20126;-66
2022/04/21 15:22:29;;;;;;;8.27;4.30;;;;;;;;;;5086618;28;20262;-65
2022/04/21 15:24:56;;;;;;;5.30;4.40;;;;;;;;;;5076355;28;20047;-66
2022/04/21 15:27:22;;;;;;;6.88;4.68;;;;;;;;;;5071687;28;20398;-67
2022/04/21 15:29:48;;;;;;;7.38;4.70;;;;;;;;;;5091387;28;20040;-67
2022/04/21 15:32:15;;;;;;;6.32;4.05;;;;;;;;;;5067041;28;20040;-67
2022/04/21 15:34:41;;;;;;;9.55;4.93;;;;;;;;;;5072413;28;20374;-67
2022/04/21 15:37:08;;;;;;;9.70;5.07;;;;;;;;;;5084746;28;20040;-66
2022/04/21 15:39:35;;;;;;;6.45;4.53;;;;;;;;;;5078336;28;20255;-66
2022/04/21 15:42:01;;;;;;;7.80;4.15;;;;;;;;;;5071791;28;20207;-66
2022/04/21 15:44:27;;;;;;;6.78;4.07;;;;;;;;;;5085797;28;20052;-66
2022/04/21 15:46:54;;;;;;;8.60;4.53;;;;;;;;;;5064240;28;20040;-66